Time;durP1;ratioP1;P1;durP2;ratioP2;P2;SDS_P1;SDS_P2;PMS_P1;PMS_P2;Temp;Humidity;BMP_temperature;BMP_pressure;BME280_temperature;BME280_humidity;BME280_pressure;Samples;Min_cycle;Max_cycle;Signal;HPM_P1;HPM_P2
2021/07/01 00:00:13;;;;;;;;;;;;;;;;;;4931802;28;20013;-92
2021/07/01 00:02:39;;;;;;;;;;;;;;;;;;4935289;29;21600;-92
2021/07/01 00:05:05;;;;;;;;;;;;;;;;;;4930555;29;19918;-92
2021/07/01 00:07:32;;;;;;;;;;;;;;;;;;4930253;28;19914;-92
2021/07/01 00:09:57;;;;;;;;;;;;;;;;;;4949753;28;19921;-91
2021/07/01 00:12:23;;;;;;;;;;;;;;;;;;4950193;28;20278;-92
2021/07/01 00:14:49;;;;;;;;;;;;;;;;;;4944048;28;20005;-92
2021/07/01 00:17:15;;;;;;;;;;;;;;;;;;4950330;28;20014;-92
2021/07/01 00:19:41;;;;;;;;;;;;;;;;;;4932881;29;19915;-92
2021/07/01 00:22:07;;;;;;;;;;;;;;;;;;4931881;29;20017;-92
2021/07/01 00:24:33;;;;;;;;;;;;;;;;;;4931015;29;20030;-93
2021/07/01 00:27:00;;;;;;;;;;;;;;;;;;4944421;28;19929;-92
2021/07/01 00:29:26;;;;;;;;;;;;;;;;;;4930113;28;19974;-93
2021/07/01 00:31:52;;;;;;;;;;;;;;;;;;4930852;28;19921;-92
2021/07/01 00:34:18;;;;;;;;;;;;;;;;;;4948935;28;19914;-92
2021/07/01 00:36:44;;;;;;;;;;;;;;;;;;4933425;28;19926;-91
2021/07/01 00:39:10;;;;;;;;;;;;;;;;;;4948348;28;19930;-92
2021/07/01 00:41:36;;;;;;;;;;;;;;;;;;4948184;28;19915;-92
2021/07/01 00:44:02;;;;;;;;;;;;;;;;;;4935415;28;20362;-92
2021/07/01 00:46:28;;;;;;;;;;;;;;;;;;4946718;28;19915;-92
2021/07/01 00:48:54;;;;;;;;;;;;;;;;;;4935162;29;19915;-92
2021/07/01 00:51:21;;;;;;;;;;;;;;;;;;4933220;29;20247;-92
2021/07/01 00:53:47;;;;;;;;;;;;;;;;;;4932356;29;19914;-92
2021/07/01 00:56:15;;;;;;;;;;;;;;;;;;4949963;28;19925;-92
2021/07/01 00:58:41;;;;;;;;;;;;;;;;;;4936180;29;20278;-92
2021/07/01 01:01:07;;;;;;;;;;;;;;;;;;4929775;28;19914;-92
2021/07/01 01:03:33;;;;;;;;;;;;;;;;;;4936689;29;19919;-92
2021/07/01 01:05:59;;;;;;;;;;;;;;;;;;4945315;28;19922;-91
2021/07/01 01:08:25;;;;;;;;;;;;;;;;;;4935224;28;19918;-92
2021/07/01 01:10:51;;;;;;;;;;;;;;;;;;4947868;28;19926;-93
2021/07/01 01:13:24;;;;;;;;;;;;;;;;;;4935759;28;20001;-92
2021/07/01 01:15:50;;;;;;;;;;;;;;;;;;4941704;28;19930;-91
2021/07/01 01:18:16;;;;;;;;;;;;;;;;;;4944687;29;19918;-92
2021/07/01 01:20:42;;;;;;;;;;;;;;;;;;4934096;29;19915;-92
2021/07/01 01:23:08;;;;;;;;;;;;;;;;;;4947260;28;19973;-93
2021/07/01 01:25:34;;;;;;;;;;;;;;;;;;4931262;28;19919;-92
2021/07/01 01:28:00;;;;;;;;;;;;;;;;;;4931339;28;20453;-91
2021/07/01 01:30:26;;;;;;;;;;;;;;;;;;4951769;28;19923;-91
2021/07/01 01:32:52;;;;;;;;;;;;;;;;;;4930022;28;19945;-92
2021/07/01 01:35:18;;;;;;;;;;;;;;;;;;4934620;29;20374;-92
2021/07/01 01:37:44;;;;;;;;;;;;;;;;;;4932545;29;19962;-91
2021/07/01 01:40:10;;;;;;;;;;;;;;;;;;4947632;28;19922;-92
2021/07/01 01:42:36;;;;;;;;;;;;;;;;;;4930485;28;19919;-92
2021/07/01 01:45:02;;;;;;;;;;;;;;;;;;4928544;29;19923;-92
2021/07/01 01:47:28;;;;;;;;;;;;;;;;;;4932906;28;19926;-92
2021/07/01 01:49:54;;;;;;;;;;;;;;;;;;4929802;28;20008;-92
2021/07/01 01:52:20;;;;;;;;;;;;;;;;;;4951958;28;19922;-92
2021/07/01 01:54:47;;;;;;;;;;;;;;;;;;4945361;28;19917;-92
2021/07/01 01:57:13;;;;;;;;;;;;;;;;;;4934826;28;19921;-91
2021/07/01 01:59:39;;;;;;;;;;;;;;;;;;4933605;28;19919;-92
2021/07/01 02:02:05;;;;;;;;;;;;;;;;;;4947310;28;20009;-92
2021/07/01 02:04:31;;;;;;;;;;;;;;;;;;4933330;28;20002;-92
2021/07/01 02:06:57;;;;;;;;;;;;;;;;;;4933149;28;20005;-92
2021/07/01 02:09:23;;;;;;;;;;;;;;;;;;4936171;29;20057;-92
2021/07/01 02:11:49;;;;;;;;;;;;;;;;;;4935505;28;20037;-92
2021/07/01 02:14:15;;;;;;;;;;;;;;;;;;4932626;29;19914;-92
2021/07/01 02:16:41;;;;;;;;;;;;;;;;;;4933248;28;19929;-92
2021/07/01 02:19:07;;;;;;;;;;;;;;;;;;4930359;28;22680;-92
2021/07/01 02:21:33;;;;;;;;;;;;;;;;;;4946738;28;19950;-92
2021/07/01 02:23:59;;;;;;;;;;;;;;;;;;4933487;29;19929;-91
2021/07/01 02:26:25;;;;;;;;;;;;;;;;;;4934156;28;19915;-92
2021/07/01 02:28:51;;;;;;;;;;;;;;;;;;4929954;28;20013;-91
2021/07/01 02:31:17;;;;;;;;;;;;;;;;;;4947877;28;21392;-92
2021/07/01 02:33:43;;;;;;;;;;;;;;;;;;4952343;28;19919;-92
2021/07/01 02:36:09;;;;;;;;;;;;;;;;;;4928687;28;20301;-92
2021/07/01 02:38:36;;;;;;;;;;;;;;;;;;4937590;29;19922;-92
2021/07/01 02:41:03;;;;;;;;;;;;;;;;;;4932379;28;20350;-92
2021/07/01 02:43:30;;;;;;;;;;;;;;;;;;4948009;28;19946;-91
2021/07/01 02:45:56;;;;;;;;;;;;;;;;;;4928489;29;19934;-91
2021/07/01 02:48:23;;;;;;;;;;;;;;;;;;4948410;28;19934;-91
2021/07/01 02:50:50;;;;;;;;;;;;;;;;;;4942123;28;19919;-90
2021/07/01 02:53:17;;;;;;;;;;;;;;;;;;4949955;28;19915;-91
2021/07/01 02:55:44;;;;;;;;;;;;;;;;;;4935954;29;19922;-92
2021/07/01 02:58:10;;;;;;;;;;;;;;;;;;4934735;28;19919;-92
2021/07/01 03:00:37;;;;;;;;;;;;;;;;;;4939393;28;19918;-91
2021/07/01 03:03:04;;;;;;;;;;;;;;;;;;4951051;28;19919;-92
2021/07/01 03:05:30;;;;;;;;;;;;;;;;;;4944758;29;19921;-91
2021/07/01 03:07:57;;;;;;;;;;;;;;;;;;4937570;28;19965;-92
2021/07/01 03:10:24;;;;;;;;;;;;;;;;;;4952983;28;20330;-92
2021/07/01 03:12:51;;;;;;;;;;;;;;;;;;4952192;28;19915;-91
2021/07/01 03:15:17;;;;;;;;;;;;;;;;;;4937732;29;19919;-92
2021/07/01 03:17:43;;;;;;;;;;;;;;;;;;4935647;28;19915;-92
2021/07/01 03:20:10;;;;;;;;;;;;;;;;;;4934203;28;19926;-91
2021/07/01 03:22:37;;;;;;;;;;;;;;;;;;4950864;28;19910;-92
2021/07/01 03:25:04;;;;;;;;;;;;;;;;;;4931914;29;19915;-91
2021/07/01 03:27:31;;;;;;;;;;;;;;;;;;4936894;29;19922;-92
2021/07/01 03:29:57;;;;;;;;;;;;;;;;;;4932288;29;19919;-92
2021/07/01 03:32:24;;;;;;;;;;;;;;;;;;4932385;28;19929;-92
2021/07/01 03:34:51;;;;;;;;;;;;;;;;;;4931515;29;19915;-92
2021/07/01 03:37:17;;;;;;;;;;;;;;;;;;4932814;29;19915;-92
2021/07/01 03:39:44;;;;;;;;;;;;;;;;;;4931503;29;19971;-91
2021/07/01 03:42:12;;;;;;;;;;;;;;;;;;4924891;29;20282;-92
2021/07/01 03:44:39;;;;;;;;;;;;;;;;;;4932120;29;19950;-91
2021/07/01 03:47:10;;;;;;;;;;;;;;;;;;4926666;29;19919;-91
2021/07/01 03:49:36;;;;;;;;;;;;;;;;;;4933004;29;19930;-91
2021/07/01 03:52:03;;;;;;;;;;;;;;;;;;4929754;29;19915;-91
2021/07/01 03:54:29;;;;;;;;;;;;;;;;;;4931844;29;19921;-91
2021/07/01 03:56:57;;;;;;;;;;;;;;;;;;4932109;29;20329;-92
2021/07/01 03:59:23;;;;;;;;;;;;;;;;;;4933010;29;20010;-91
2021/07/01 04:01:50;;;;;;;;;;;;;;;;;;4930968;29;19954;-91
2021/07/01 04:04:17;;;;;;;;;;;;;;;;;;4951069;28;20335;-91
2021/07/01 04:06:44;;;;;;;;;;;;;;;;;;4931277;29;19915;-91
2021/07/01 04:09:10;;;;;;;;;;;;;;;;;;4930945;29;20014;-90
2021/07/01 04:11:37;;;;;;;;;;;;;;;;;;4931473;29;21550;-91
2021/07/01 04:14:04;;;;;;;;;;;;;;;;;;4931050;29;19916;-92
2021/07/01 04:16:30;;;;;;;;;;;;;;;;;;4932418;29;20422;-91
2021/07/01 04:18:57;;;;;;;;;;;;;;;;;;4931608;29;20362;-91
2021/07/01 04:21:27;;;;;;;;;;;;;;;;;;4932954;29;20901;-92
2021/07/01 04:23:56;;;;;;;;;;;;;;;;;;4930210;29;19915;-92
2021/07/01 04:26:23;;;;;;;;;;;;;;;;;;4932461;29;20251;-91
2021/07/01 04:28:51;;;;;;;;;;;;;;;;;;4929843;29;19922;-91
2021/07/01 04:31:17;;;;;;;;;;;;;;;;;;4931351;29;19915;-92
2021/07/01 04:33:44;;;;;;;;;;;;;;;;;;4932121;29;19918;-91
2021/07/01 04:36:11;;;;;;;;;;;;;;;;;;4945753;28;20464;-91
2021/07/01 04:38:38;;;;;;;;;;;;;;;;;;4932629;29;20311;-91
2021/07/01 04:41:05;;;;;;;;;;;;;;;;;;4930795;29;19915;-91
2021/07/01 04:43:32;;;;;;;;;;;;;;;;;;4947685;28;19919;-92
2021/07/01 04:45:58;;;;;;;;;;;;;;;;;;4928518;29;20278;-91
2021/07/01 04:48:25;;;;;;;;;;;;;;;;;;4930986;29;19920;-91
2021/07/01 04:50:52;;;;;;;;;;;;;;;;;;4928077;29;20763;-91
2021/07/01 04:53:18;;;;;;;;;;;;;;;;;;4950901;28;19919;-91
2021/07/01 04:55:45;;;;;;;;;;;;;;;;;;4932159;29;20014;-91
2021/07/01 04:58:11;;;;;;;;;;;;;;;;;;4927691;29;19915;-91
2021/07/01 05:00:37;;;;;;;;;;;;;;;;;;4933414;29;19923;-91
2021/07/01 05:03:04;;;;;;;;;;;;;;;;;;4943057;29;19923;-91
2021/07/01 05:05:31;;;;;;;;;;;;;;;;;;4954395;28;19929;-91
2021/07/01 05:07:58;;;;;;;;;;;;;;;;;;4930844;29;19919;-91
2021/07/01 05:10:25;;;;;;;;;;;;;;;;;;4947335;28;19954;-91
2021/07/01 05:12:52;;;;;;;;;;;;;;;;;;4929898;29;20013;-91
2021/07/01 05:15:19;;;;;;;;;;;;;;;;;;4935500;29;19926;-91
2021/07/01 05:17:45;;;;;;;;;;;;;;;;;;4946141;28;19954;-91
2021/07/01 05:20:12;;;;;;;;;;;;;;;;;;4940319;28;19925;-91
2021/07/01 05:22:38;;;;;;;;;;;;;;;;;;4926328;29;19915;-92
2021/07/01 05:25:04;;;;;;;;;;;;;;;;;;4927775;29;20057;-91
2021/07/01 05:27:30;;;;;;;;;;;;;;;;;;4942701;28;19971;-91
2021/07/01 05:29:56;;;;;;;;;;;;;;;;;;4928237;29;19923;-93
2021/07/01 05:32:22;;;;;;;;;;;;;;;;;;4931396;29;19915;-95
2021/07/01 05:34:48;;;;;;;;;;;;;;;;;;4936412;29;19911;-94
2021/07/01 05:37:15;;;;;;;;;;;;;;;;;;4931753;29;19927;-94
2021/07/01 05:39:41;;;;;;;;;;;;;;;;;;4927285;29;19915;-94
2021/07/01 05:42:07;;;;;;;;;;;;;;;;;;4946421;28;19919;-94
2021/07/01 05:44:33;;;;;;;;;;;;;;;;;;4929920;29;19915;-94
2021/07/01 05:46:59;;;;;;;;;;;;;;;;;;4931302;29;19914;-94
2021/07/01 05:49:25;;;;;;;;;;;;;;;;;;4931700;29;20497;-94
2021/07/01 05:51:55;;;;;;;;;;;;;;;;;;4927096;29;19962;-93
2021/07/01 05:56:47;;;;;;;;;;;;;;;;;;4933307;29;19954;-94
2021/07/01 05:59:14;;;;;;;;;;;;;;;;;;4931062;29;19929;-93
2021/07/01 06:01:40;;;;;;;;;;;;;;;;;;4933256;29;19919;-93
2021/07/01 06:04:06;;;;;;;;;;;;;;;;;;4946022;28;19934;-92
2021/07/01 06:06:32;;;;;;;;;;;;;;;;;;4930643;29;19919;-93
2021/07/01 06:08:58;;;;;;;;;;;;;;;;;;4930726;29;19922;-93
2021/07/01 06:11:24;;;;;;;;;;;;;;;;;;4931456;29;20335;-93
2021/07/01 06:13:50;;;;;;;;;;;;;;;;;;4927039;29;19919;-92
2021/07/01 06:16:16;;;;;;;;;;;;;;;;;;4946890;28;19918;-93
2021/07/01 06:18:42;;;;;;;;;;;;;;;;;;4930398;29;19918;-93
2021/07/01 06:21:08;;;;;;;;;;;;;;;;;;4926067;29;19923;-92
2021/07/01 06:23:34;;;;;;;;;;;;;;;;;;4927442;29;19915;-92
2021/07/01 06:26:00;;;;;;;;;;;;;;;;;;4928404;29;20341;-92
2021/07/01 06:28:26;;;;;;;;;;;;;;;;;;4930733;29;19927;-92
2021/07/01 06:30:54;;;;;;;;;;;;;;;;;;4932401;29;20103;-92
2021/07/01 06:33:20;;;;;;;;;;;;;;;;;;4940567;29;20009;-91
2021/07/01 06:35:46;;;;;;;;;;;;;;;;;;4938218;29;19919;-91
2021/07/01 06:38:12;;;;;;;;;;;;;;;;;;4938557;29;20502;-89
2021/07/01 06:40:39;;;;;;;;;;;;;;;;;;4936796;29;19958;-92
2021/07/01 06:43:05;;;;;;;;;;;;;;;;;;4927012;29;19966;-90
2021/07/01 06:45:31;;;;;;;;;;;;;;;;;;4942838;28;19978;-91
2021/07/01 06:47:57;;;;;;;;;;;;;;;;;;4928614;29;19922;-91
2021/07/01 06:50:23;;;;;;;;;;;;;;;;;;4928586;29;19934;-91
2021/07/01 06:52:49;;;;;;;;;;;;;;;;;;4927156;29;19925;-92
2021/07/01 06:55:16;;;;;;;;;;;;;;;;;;4928699;29;19943;-90
2021/07/01 06:57:42;;;;;;;;;;;;;;;;;;4933934;29;19974;-91
2021/07/01 07:00:08;;;;;;;;;;;;;;;;;;4926483;29;19965;-90
2021/07/01 07:02:34;;;;;;;;;;;;;;;;;;4925835;29;19911;-92
2021/07/01 07:05:00;;;;;;;;;;;;;;;;;;4937170;28;19919;-91
2021/07/01 07:07:26;;;;;;;;;;;;;;;;;;4931225;29;19911;-90
2021/07/01 07:09:52;;;;;;;;;;;;;;;;;;4937448;29;20050;-92
2021/07/01 07:12:19;;;;;;;;;;;;;;;;;;4938853;29;19962;-91
2021/07/01 07:14:45;;;;;;;;;;;;;;;;;;4938246;29;20002;-93
2021/07/01 07:17:11;;;;;;;;;;;;;;;;;;4934792;29;19931;-93
2021/07/01 07:19:37;;;;;;;;;;;;;;;;;;4926780;29;19911;-93
2021/07/01 07:22:03;;;;;;;;;;;;;;;;;;4924167;29;20747;-93
2021/07/01 07:24:29;;;;;;;;;;;;;;;;;;4927947;29;19981;-93
2021/07/01 07:26:57;;;;;;;;;;;;;;;;;;4930949;29;19949;-92
2021/07/01 07:29:23;;;;;;;;;;;;;;;;;;4954019;28;19919;-92
2021/07/01 07:31:49;;;;;;;;;;;;;;;;;;4935077;29;19942;-93
2021/07/01 07:34:15;;;;;;;;;;;;;;;;;;4947112;28;19926;-92
2021/07/01 07:36:41;;;;;;;;;;;;;;;;;;4947079;28;19924;-91
2021/07/01 07:39:07;;;;;;;;;;;;;;;;;;4930234;28;19922;-91
2021/07/01 07:41:33;;;;;;;;;;;;;;;;;;4955417;28;19968;-93
2021/07/01 07:44:03;;;;;;;;;;;;;;;;;;4959815;28;19958;-92
2021/07/01 07:46:31;;;;;;;;;;;;;;;;;;5346016;23;20864;-90
2021/07/01 07:48:59;;;;;;;;;;;;;;;;;;5529423;23;19961;31
2021/07/01 07:51:46;;;;;;;;;;;;;;;;;;4903113;29;19966;-90
2021/07/01 07:54:13;;;;;;;;;;;;;;;;;;4887558;29;19923;-89
2021/07/01 07:56:44;;;;;;;;;;;;;;;;;;4896105;29;19974;-92
2021/07/01 07:59:11;;;;;;;;;;;;;;;;;;4902102;29;19923;-92
2021/07/01 08:01:38;;;;;;;;;;;;;;;;;;4901192;29;19946;-93
2021/07/01 08:04:05;;;;;;;;;;;;;;;;;;4913785;29;19919;-92
2021/07/01 08:06:32;;;;;;;;;;;;;;;;;;4908039;29;19915;-93
2021/07/01 08:08:59;;;;;;;;;;;;;;;;;;4887562;29;20302;-91
2021/07/01 08:11:26;;;;;;;;;;;;;;;;;;4905114;29;19922;-93
2021/07/01 08:13:57;;;;;;;;;;;;;;;;;;4906063;29;19915;-91
2021/07/01 08:16:23;;;;;;;;;;;;;;;;;;4902528;29;19919;-90
2021/07/01 08:18:50;;;;;;;;;;;;;;;;;;4904930;29;19959;-91
2021/07/01 08:21:17;;;;;;;;;;;;;;;;;;4897443;29;19948;-90
2021/07/01 08:23:43;;;;;;;;;;;;;;;;;;4900044;29;19912;-90
2021/07/01 08:26:10;;;;;;;;;;;;;;;;;;4902137;29;19930;-90
2021/07/01 08:28:37;;;;;;;;;;;;;;;;;;4915240;29;19931;-89
2021/07/01 08:31:04;;;;;;;;;;;;;;;;;;4887141;29;19922;-88
2021/07/01 08:33:30;;;;;;;;;;;;;;;;;;4882144;29;19916;-91
2021/07/01 08:35:57;;;;;;;;;;;;;;;;;;4878146;29;20321;-87
2021/07/01 08:38:23;;;;;;;;;;;;;;;;;;4880019;29;19916;-91
2021/07/01 08:40:49;;;;;;;;;;;;;;;;;;4881781;29;19971;-89
2021/07/01 08:43:18;;;;;;;;;;;;;;;;;;4878425;29;19915;-91
2021/07/01 08:45:45;;;;;;;;;;;;;;;;;;4874042;29;19947;-91
2021/07/01 08:48:12;;;;;;;;;;;;;;;;;;4881621;29;19959;-91
2021/07/01 08:50:39;;;;;;;;;;;;;;;;;;4890314;29;19923;-90
2021/07/01 08:53:05;;;;;;;;;;;;;;;;;;4892690;29;19923;-90
2021/07/01 08:55:33;;;;;;;;;;;;;;;;;;4890244;29;20420;-91
2021/07/01 08:58:00;;;;;;;;;;;;;;;;;;4897331;29;19915;-90
2021/07/01 09:00:27;;;;;;;;;;;;;;;;;;4902941;29;19912;-87
2021/07/01 09:02:53;;;;;;;;;;;;;;;;;;4894912;29;19916;-85
2021/07/01 09:05:20;;;;;;;;;;;;;;;;;;4891304;29;19919;-87
2021/07/01 09:07:48;;;;;;;;;;;;;;;;;;4896354;29;19923;-88
2021/07/01 09:10:15;;;;;;;;;;;;;;;;;;4891122;29;20010;-88
2021/07/01 09:12:43;;;;;;;;;;;;;;;;;;4895110;29;19919;-89
2021/07/01 09:15:10;;;;;;;;;;;;;;;;;;4889498;29;19924;-89
2021/07/01 09:17:37;;;;;;;;;;;;;;;;;;4892528;29;19987;-88
2021/07/01 09:20:04;;;;;;;;;;;;;;;;;;4893658;29;19971;-89
2021/07/01 09:22:31;;;;;;;;;;;;;;;;;;4892297;29;19923;-89
2021/07/01 09:24:58;;;;;;;;;;;;;;;;;;4895256;29;19994;-85
2021/07/01 09:27:26;;;;;;;;;;;;;;;;;;4894558;29;19923;-88
2021/07/01 09:29:57;;;;;;;;;;;;;;;;;;4890787;29;19928;-88
2021/07/01 09:32:28;;;;;;;;;;;;;;;;;;4887900;29;20368;-88
2021/07/01 09:34:55;;;;;;;;;;;;;;;;;;4888760;29;20451;-88
2021/07/01 09:37:21;;;;;;;;;;;;;;;;;;4880190;29;19916;-87
2021/07/01 09:39:48;;;;;;;;;;;;;;;;;;4875935;29;19920;-88
2021/07/01 09:42:15;;;;;;;;;;;;;;;;;;4878743;29;20376;-87
2021/07/01 09:44:42;;;;;;;;;;;;;;;;;;4890911;29;19916;-86
2021/07/01 09:47:10;;;;;;;;;;;;;;;;;;4875465;29;21548;-88
2021/07/01 09:49:37;;;;;;;;;;;;;;;;;;4877821;29;19931;-87
2021/07/01 09:52:03;;;;;;;;;;;;;;;;;;4875329;29;19916;-87
2021/07/01 09:54:32;;;;;;;;;;;;;;;;;;4877048;29;19945;-87
2021/07/01 09:57:00;;;;;;;;;;;;;;;;;;4871968;29;19920;-88
2021/07/01 09:59:27;;;;;;;;;;;;;;;;;;4875332;29;19916;-88
2021/07/01 10:01:54;;;;;;;;;;;;;;;;;;4873040;29;19916;-89
2021/07/01 10:04:20;;;;;;;;;;;;;;;;;;4877832;29;19976;-88
2021/07/01 10:06:47;;;;;;;;;;;;;;;;;;4872805;29;19924;-88
2021/07/01 10:09:16;;;;;;;;;;;;;;;;;;4869340;29;19915;-88
2021/07/01 10:11:42;;;;;;;;;;;;;;;;;;4877529;29;19922;-87
2021/07/01 10:14:09;;;;;;;;;;;;;;;;;;4874867;29;19954;-86
2021/07/01 10:16:38;;;;;;;;;;;;;;;;;;4875743;29;19924;-89
2021/07/01 10:19:07;;;;;;;;;;;;;;;;;;4874539;29;19923;-87
2021/07/01 10:21:36;;;;;;;;;;;;;;;;;;4875134;29;19920;-86
2021/07/01 10:24:03;;;;;;;;;;;;;;;;;;4872246;29;20329;-86
2021/07/01 10:26:30;;;;;;;;;;;;;;;;;;4876011;29;19984;-86
2021/07/01 10:28:57;;;;;;;;;;;;;;;;;;4874113;29;20265;-86
2021/07/01 10:31:24;;;;;;;;;;;;;;;;;;4873715;29;20897;-86
2021/07/01 10:33:50;;;;;;;;;;;;;;;;;;4875467;29;20316;-88
2021/07/01 10:36:17;;;;;;;;;;;;;;;;;;4878383;29;19920;-87
2021/07/01 10:38:44;;;;;;;;;;;;;;;;;;4875998;29;19988;-89
2021/07/01 10:41:11;;;;;;;;;;;;;;;;;;4876934;29;19987;-88
2021/07/01 10:43:37;;;;;;;;;;;;;;;;;;4878079;29;20019;-89
2021/07/01 10:46:04;;;;;;;;;;;;;;;;;;4877501;29;19971;-87
2021/07/01 10:48:30;;;;;;;;;;;;;;;;;;4879468;29;19915;-87
2021/07/01 10:50:57;;;;;;;;;;;;;;;;;;4884132;29;19924;-88
2021/07/01 10:53:23;;;;;;;;;;;;;;;;;;4888187;29;19916;-87
2021/07/01 10:55:50;;;;;;;;;;;;;;;;;;4873275;29;20406;-89
2021/07/01 10:58:16;;;;;;;;;;;;;;;;;;4889971;29;20056;-90
2021/07/01 11:00:43;;;;;;;;;;;;;;;;;;4889902;29;19916;-89
2021/07/01 11:03:10;;;;;;;;;;;;;;;;;;4873686;29;20018;-88
2021/07/01 11:05:37;;;;;;;;;;;;;;;;;;4887988;29;19915;-90
2021/07/01 11:08:04;;;;;;;;;;;;;;;;;;4888470;29;19916;-88
2021/07/01 11:10:30;;;;;;;;;;;;;;;;;;4892359;29;19916;-88
2021/07/01 11:12:56;;;;;;;;;;;;;;;;;;4875320;29;19940;-87
2021/07/01 11:15:23;;;;;;;;;;;;;;;;;;4889074;29;20283;-86
2021/07/01 11:17:50;;;;;;;;;;;;;;;;;;4877827;29;19930;-86
2021/07/01 11:20:17;;;;;;;;;;;;;;;;;;4883553;29;20006;-87
2021/07/01 11:22:44;;;;;;;;;;;;;;;;;;4880799;29;19990;-86
2021/07/01 11:25:10;;;;;;;;;;;;;;;;;;4892130;29;19916;-84
2021/07/01 11:27:37;;;;;;;;;;;;;;;;;;4893314;29;19911;-86
2021/07/01 11:30:04;;;;;;;;;;;;;;;;;;4889473;29;19931;-88
2021/07/01 11:32:30;;;;;;;;;;;;;;;;;;4886678;29;19974;-86
2021/07/01 11:34:57;;;;;;;;;;;;;;;;;;4887134;29;20014;-85
2021/07/01 11:37:24;;;;;;;;;;;;;;;;;;4888491;29;19931;-89
2021/07/01 11:39:50;;;;;;;;;;;;;;;;;;4888743;29;19975;-89
2021/07/01 11:42:17;;;;;;;;;;;;;;;;;;4875577;29;19924;-89
2021/07/01 11:44:43;;;;;;;;;;;;;;;;;;4892532;29;19979;-89
2021/07/01 11:47:10;;;;;;;;;;;;;;;;;;4894680;29;19931;-88
2021/07/01 11:49:37;;;;;;;;;;;;;;;;;;4891384;29;19931;-88
2021/07/01 11:52:04;;;;;;;;;;;;;;;;;;4890338;29;19922;-89
2021/07/01 11:54:32;;;;;;;;;;;;;;;;;;4879246;29;19919;-89
2021/07/01 11:57:00;;;;;;;;;;;;;;;;;;4890367;29;19927;-91
2021/07/01 11:59:27;;;;;;;;;;;;;;;;;;4888078;29;19915;-89
2021/07/01 12:01:54;;;;;;;;;;;;;;;;;;4890140;29;19994;-88
2021/07/01 12:04:20;;;;;;;;;;;;;;;;;;4900320;29;19920;-90
2021/07/01 12:06:47;;;;;;;;;;;;;;;;;;4892823;29;20011;-88
2021/07/01 12:09:14;;;;;;;;;;;;;;;;;;4894346;29;19915;-88
2021/07/01 12:11:41;;;;;;;;;;;;;;;;;;4895070;29;19959;-88
2021/07/01 12:14:08;;;;;;;;;;;;;;;;;;4892309;29;19927;-88
2021/07/01 12:16:35;;;;;;;;;;;;;;;;;;4877107;29;19927;-88
2021/07/01 12:19:01;;;;;;;;;;;;;;;;;;4892179;29;19919;-88
2021/07/01 12:21:28;;;;;;;;;;;;;;;;;;4874472;29;19920;-88
2021/07/01 12:23:54;;;;;;;;;;;;;;;;;;4879905;29;19951;-89
2021/07/01 12:26:21;;;;;;;;;;;;;;;;;;4878120;29;19947;-88
2021/07/01 12:28:48;;;;;;;;;;;;;;;;;;4893625;29;19923;-88
2021/07/01 12:31:15;;;;;;;;;;;;;;;;;;4889021;29;19924;-88
2021/07/01 12:33:45;;;;;;;;;;;;;;;;;;4890696;29;19916;-88
2021/07/01 12:36:12;;;;;;;;;;;;;;;;;;4877937;29;19927;-88
2021/07/01 12:38:39;;;;;;;;;;;;;;;;;;4877263;29;21349;-89
2021/07/01 12:41:05;;;;;;;;;;;;;;;;;;4893787;29;19915;-90
2021/07/01 12:43:32;;;;;;;;;;;;;;;;;;4875721;29;19916;-90
2021/07/01 12:45:58;;;;;;;;;;;;;;;;;;4891640;29;19971;-90
2021/07/01 12:48:25;;;;;;;;;;;;;;;;;;4896569;29;19919;-89
2021/07/01 12:50:50;;;;;;;;;;;;;;;;;;4891140;29;19939;-91
2021/07/01 12:53:17;;;;;;;;;;;;;;;;;;4898144;29;19916;-91
2021/07/01 12:55:43;;;;;;;;;;;;;;;;;;4897345;29;19979;-91
2021/07/01 12:58:10;;;;;;;;;;;;;;;;;;4890935;29;19923;-91
2021/07/01 13:00:37;;;;;;;;;;;;;;;;;;4894802;29;20391;-90
2021/07/01 13:03:04;;;;;;;;;;;;;;;;;;4872546;29;19924;-91
2021/07/01 13:05:31;;;;;;;;;;;;;;;;;;4879489;29;19935;-90
2021/07/01 13:07:58;;;;;;;;;;;;;;;;;;4875922;29;20023;-90
2021/07/01 13:10:25;;;;;;;;;;;;;;;;;;4881261;29;20336;-89
2021/07/01 13:12:52;;;;;;;;;;;;;;;;;;4893901;29;19920;-90
2021/07/01 13:15:20;;;;;;;;;;;;;;;;;;4881260;29;19916;-92
2021/07/01 13:17:47;;;;;;;;;;;;;;;;;;4895101;29;20010;-90
2021/07/01 13:20:14;;;;;;;;;;;;;;;;;;4894438;29;19975;-91
2021/07/01 13:22:40;;;;;;;;;;;;;;;;;;4891076;29;19925;-92
2021/07/01 13:25:07;;;;;;;;;;;;;;;;;;4890724;29;19916;-91
2021/07/01 13:27:34;;;;;;;;;;;;;;;;;;4893587;29;19912;-91
2021/07/01 13:30:01;;;;;;;;;;;;;;;;;;4892499;29;19963;-92
2021/07/01 13:32:27;;;;;;;;;;;;;;;;;;4879309;29;19912;-91
2021/07/01 13:34:54;;;;;;;;;;;;;;;;;;4892195;29;19920;-90
2021/07/01 13:37:20;;;;;;;;;;;;;;;;;;4894492;29;20018;-91
2021/07/01 13:39:47;;;;;;;;;;;;;;;;;;4893204;29;19916;-87
2021/07/01 13:42:14;;;;;;;;;;;;;;;;;;4873478;29;19924;-87
2021/07/01 13:44:40;;;;;;;;;;;;;;;;;;4892766;29;20328;-88
2021/07/01 13:47:07;;;;;;;;;;;;;;;;;;4892616;29;19924;-90
2021/07/01 13:49:33;;;;;;;;;;;;;;;;;;4894087;29;19919;-90
2021/07/01 13:52:00;;;;;;;;;;;;;;;;;;4882664;29;19927;-89
2021/07/01 13:54:26;;;;;;;;;;;;;;;;;;4870543;29;19971;-87
2021/07/01 13:56:53;;;;;;;;;;;;;;;;;;4868524;29;19934;-89
2021/07/01 13:59:20;;;;;;;;;;;;;;;;;;4871724;29;19923;-87
2021/07/01 14:01:46;;;;;;;;;;;;;;;;;;4870407;29;20449;-88
2021/07/01 14:04:13;;;;;;;;;;;;;;;;;;4886834;29;20014;-90
2021/07/01 14:06:39;;;;;;;;;;;;;;;;;;4889484;29;19927;-93
2021/07/01 14:09:05;;;;;;;;;;;;;;;;;;4889214;29;19916;-92
2021/07/01 14:11:33;;;;;;;;;;;;;;;;;;4872487;29;19924;-91
2021/07/01 14:14:02;;;;;;;;;;;;;;;;;;4887174;29;20372;-91
2021/07/01 14:16:30;;;;;;;;;;;;;;;;;;4871261;29;19926;-90
2021/07/01 14:18:59;;;;;;;;;;;;;;;;;;4870594;29;20201;-88
2021/07/01 14:21:26;;;;;;;;;;;;;;;;;;4888348;29;19916;-89
2021/07/01 14:23:52;;;;;;;;;;;;;;;;;;4888678;29;20012;-89
2021/07/01 14:26:19;;;;;;;;;;;;;;;;;;4872905;29;19947;-90
2021/07/01 14:28:46;;;;;;;;;;;;;;;;;;4890458;29;19968;-89
2021/07/01 14:31:13;;;;;;;;;;;;;;;;;;4872391;29;19920;-89
2021/07/01 14:33:42;;;;;;;;;;;;;;;;;;4885933;29;19912;-89
2021/07/01 14:36:09;;;;;;;;;;;;;;;;;;4891094;29;19951;-90
2021/07/01 14:38:35;;;;;;;;;;;;;;;;;;4895110;29;19968;-89
2021/07/01 14:41:02;;;;;;;;;;;;;;;;;;4888237;29;19979;-89
2021/07/01 14:43:31;;;;;;;;;;;;;;;;;;4875670;29;19969;-89
2021/07/01 14:45:58;;;;;;;;;;;;;;;;;;4870318;29;19923;-89
2021/07/01 14:48:25;;;;;;;;;;;;;;;;;;4887340;29;19915;-90
2021/07/01 14:50:54;;;;;;;;;;;;;;;;;;4883141;29;19954;-91
2021/07/01 14:53:21;;;;;;;;;;;;;;;;;;4873236;29;19916;-91
2021/07/01 14:55:47;;;;;;;;;;;;;;;;;;4886049;29;19924;-91
2021/07/01 14:58:14;;;;;;;;;;;;;;;;;;4872094;29;20424;-91
2021/07/01 15:00:40;;;;;;;;;;;;;;;;;;4888264;29;19912;-89
2021/07/01 15:03:06;;;;;;;;;;;;;;;;;;4873362;29;19923;-90
2021/07/01 15:05:32;;;;;;;;;;;;;;;;;;4873556;29;19920;-89
2021/07/01 15:07:59;;;;;;;;;;;;;;;;;;4885934;29;19980;-90
2021/07/01 15:10:25;;;;;;;;;;;;;;;;;;4889768;29;20687;-90
2021/07/01 15:12:52;;;;;;;;;;;;;;;;;;4894673;29;19920;-90
2021/07/01 15:15:23;;;;;;;;;;;;;;;;;;4895458;29;19916;-90
2021/07/01 15:17:50;;;;;;;;;;;;;;;;;;4885534;29;20015;-91
2021/07/01 15:20:18;;;;;;;;;;;;;;;;;;4894938;29;19919;-91
2021/07/01 15:22:45;;;;;;;;;;;;;;;;;;4886446;29;19916;-90
2021/07/01 15:25:11;;;;;;;;;;;;;;;;;;4869663;29;19921;-90
2021/07/01 15:27:38;;;;;;;;;;;;;;;;;;4876300;29;20003;-90
2021/07/01 15:30:05;;;;;;;;;;;;;;;;;;4887625;29;19924;-89
2021/07/01 15:32:31;;;;;;;;;;;;;;;;;;4875017;29;20326;-89
2021/07/01 15:34:57;;;;;;;;;;;;;;;;;;4883052;29;20375;-89
2021/07/01 15:37:23;;;;;;;;;;;;;;;;;;4870429;29;19927;-90
2021/07/01 15:39:50;;;;;;;;;;;;;;;;;;4868940;29;19952;-87
2021/07/01 15:42:17;;;;;;;;;;;;;;;;;;4886167;29;19966;-90
2021/07/01 15:44:44;;;;;;;;;;;;;;;;;;4886163;29;19924;-89
2021/07/01 15:47:11;;;;;;;;;;;;;;;;;;4873449;29;19923;-90
2021/07/01 15:49:41;;;;;;;;;;;;;;;;;;4883695;29;20291;-87
2021/07/01 15:52:08;;;;;;;;;;;;;;;;;;4882975;29;19967;-89
2021/07/01 15:54:35;;;;;;;;;;;;;;;;;;4884455;29;19912;-88
2021/07/01 15:57:02;;;;;;;;;;;;;;;;;;4883381;29;19923;-87
2021/07/01 15:59:29;;;;;;;;;;;;;;;;;;4884406;29;20402;-88
2021/07/01 16:01:55;;;;;;;;;;;;;;;;;;4886241;29;19920;-88
2021/07/01 16:04:30;;;;;;;;;;;;;;;;;;4885952;29;19980;-85
2021/07/01 16:06:57;;;;;;;;;;;;;;;;;;4871396;29;20022;-88
2021/07/01 16:09:24;;;;;;;;;;;;;;;;;;4872815;29;19915;-86
2021/07/01 16:11:52;;;;;;;;;;;;;;;;;;4867479;29;19920;-87
2021/07/01 16:14:19;;;;;;;;;;;;;;;;;;4885959;29;19981;-88
2021/07/01 16:19:37;;;;;;;;;;;;;;;;;;4871805;29;19940;-87
2021/07/01 16:22:03;;;;;;;;;;;;;;;;;;4871101;29;20669;-88
2021/07/01 16:24:30;;;;;;;;;;;;;;;;;;4888820;29;19916;-87
2021/07/01 16:26:58;;;;;;;;;;;;;;;;;;4875927;29;19999;-86
2021/07/01 16:29:28;;;;;;;;;;;;;;;;;;4886679;29;20019;-88
2021/07/01 16:31:58;;;;;;;;;;;;;;;;;;4884370;29;19923;-87
2021/07/01 16:34:25;;;;;;;;;;;;;;;;;;4878201;29;19992;-87
2021/07/01 16:36:53;;;;;;;;;;;;;;;;;;4874911;29;19920;-90
2021/07/01 16:39:20;;;;;;;;;;;;;;;;;;4870801;29;19927;-88
2021/07/01 16:41:47;;;;;;;;;;;;;;;;;;4885870;29;19920;-87
2021/07/01 16:44:14;;;;;;;;;;;;;;;;;;4869421;29;20027;-86
2021/07/01 16:46:40;;;;;;;;;;;;;;;;;;4870356;29;19924;-85